Time;durP1;ratioP1;P1;durP2;ratioP2;P2;SDS_P1;SDS_P2;PMS_P1;PMS_P2;Temp;Humidity;BMP_temperature;BMP_pressure;BME280_temperature;BME280_humidity;BME280_pressure;Samples;Min_cycle;Max_cycle;Signal;HPM_P1;HPM_P2
2021/04/22 00:03:45;;;;;;;19.80;14.70;;;;;;;8.93;55.09;98993.07;467870;1174;115924;-58
2021/04/22 00:13:50;;;;;;;19.93;13.93;;;;;;;8.75;55.89;99000.38;469042;1174;116625;-59
2021/04/22 00:23:54;;;;;;;13.80;11.50;;;;;;;8.32;57.09;98999.57;468421;1175;118232;-59
2021/04/22 00:33:58;;;;;;;12.70;11.25;;;;;;;7.87;58.12;98998.93;467430;1174;115843;-58
2021/04/22 00:44:03;;;;;;;16.40;11.67;;;;;;;7.45;59.23;98991.03;467782;1175;115991;-58
2021/04/22 00:54:07;;;;;;;15.57;11.00;;;;;;;7.23;59.99;99019.29;468984;1174;116021;-58
2021/04/22 01:04:11;;;;;;;12.60;10.93;;;;;;;7.04;60.54;99023.91;467800;1175;175972;-58
2021/04/22 01:14:15;;;;;;;14.50;11.75;;;;;;;6.95;61.43;99038.34;468768;1174;116274;-58
2021/04/22 01:24:20;;;;;;;16.95;11.70;;;;;;;6.92;61.79;99052.41;468308;1174;115311;-56
2021/04/22 01:34:24;;;;;;;16.80;12.83;;;;;;;6.84;62.29;99042.41;474280;1174;116017;-56
2021/04/22 01:44:27;;;;;;;13.90;10.77;;;;;;;6.94;62.47;99039.28;471500;1174;115586;-58
2021/04/22 01:54:31;;;;;;;14.40;11.10;;;;;;;7.05;62.72;99043.86;483989;1173;115930;-57
2021/04/22 02:04:34;;;;;;;12.90;9.50;;;;;;;7.03;62.73;99053.55;473972;1173;116836;-58
2021/04/22 02:14:38;;;;;;;16.80;10.20;;;;;;;7.00;62.70;99067.62;479156;1175;117270;-57
2021/04/22 02:24:42;;;;;;;10.70;8.07;;;;;;;7.03;62.50;99043.94;478312;1174;116885;-58
2021/04/22 02:34:46;;;;;;;10.27;5.07;;;;;;;6.85;60.90;99080.63;482252;1174;116617;-58
2021/04/22 02:44:50;;;;;;;10.47;5.67;;;;;;;6.77;60.69;99067.16;474818;1174;115750;-56
2021/04/22 02:54:54;;;;;;;7.20;4.50;;;;;;;6.54;61.71;99066.69;477586;1176;115317;-56
2021/04/22 03:04:57;;;;;;;7.30;4.40;;;;;;;6.25;62.05;99083.94;468134;1174;115571;-56
2021/04/22 03:15:02;;;;;;;12.25;4.90;;;;;;;6.02;63.79;99109.48;476356;1175;116029;-57
2021/04/22 03:25:09;;;;;;;8.77;3.73;;;;;;;5.70;63.45;99099.80;472646;1174;116214;-58
2021/04/22 03:35:14;;;;;;;7.03;4.17;;;;;;;5.44;63.88;99132.38;468353;1174;116034;-59
2021/04/22 03:45:18;;;;;;;7.75;4.35;;;;;;;5.22;65.13;99148.23;476776;1174;116223;-58
2021/04/22 03:55:23;;;;;;;4.40;3.60;;;;;;;5.10;65.66;99154.86;473436;1169;116172;-59
2021/04/22 04:05:30;;;;;;;5.37;3.90;;;;;;;5.00;66.57;99177.89;478894;1173;115034;-58
2021/04/22 04:15:33;;;;;;;4.90;2.73;;;;;;;4.86;66.77;99184.59;470657;1174;116060;-57
2021/04/22 04:25:37;;;;;;;7.73;3.47;;;;;;;4.81;67.30;99177.92;475310;1174;116104;-58
2021/04/22 04:35:40;;;;;;;7.60;3.97;;;;;;;4.96;66.90;99194.55;483893;1174;115787;-58
2021/04/22 04:45:44;;;;;;;6.87;3.63;;;;;;;4.85;66.57;99216.73;483843;1174;117009;-58
2021/04/22 04:55:48;;;;;;;5.15;3.20;;;;;;;4.83;66.99;99233.33;477886;1174;115937;-58
2021/04/22 05:05:51;;;;;;;6.90;3.47;;;;;;;4.81;66.56;99235.16;483833;1174;115972;-58
2021/04/22 05:15:58;;;;;;;4.17;2.40;;;;;;;5.02;66.47;99236.77;483565;1174;116005;-55
2021/04/22 05:26:01;;;;;;;7.23;2.80;;;;;;;5.70;65.78;99239.61;478289;1174;175624;-59
2021/04/22 05:36:07;;;;;;;6.90;4.05;;;;;;;6.54;65.71;99240.64;483651;1174;116534;-58
2021/04/22 05:46:10;;;;;;;4.63;3.60;;;;;;;7.31;65.39;99253.88;477469;1174;115775;-59
2021/04/22 05:56:15;;;;;;;5.30;3.63;;;;;;;8.17;63.70;99252.45;479550;1177;115863;-58
2021/04/22 06:06:19;;;;;;;6.07;1.90;;;;;;;7.77;58.83;99253.02;467307;1175;116193;-57
2021/04/22 06:16:23;;;;;;;7.27;2.00;;;;;;;7.24;58.26;99273.42;483264;1174;116672;-59
2021/04/22 06:26:29;;;;;;;7.40;2.53;;;;;;;10.33;57.01;99274.72;478332;1177;116357;-59
2021/04/22 06:36:33;;;;;;;6.17;2.33;;;;;;;19.02;46.64;99276.63;483924;1174;115266;-58
2021/04/22 06:46:39;;;;;;;6.90;2.10;;;;;;;20.55;38.31;99279.89;470388;1174;116214;-62
2021/04/22 06:56:43;;;;;;;6.65;2.40;;;;;;;18.97;35.46;99301.03;474351;1174;115760;-71
2021/04/22 07:06:47;;;;;;;4.85;2.15;;;;;;;15.72;36.29;99307.43;469833;1173;115930;-70
2021/04/22 07:16:51;;;;;;;10.35;2.85;;;;;;;14.60;36.77;99332.95;470508;1176;115930;-57
2021/04/22 07:26:55;;;;;;;7.10;2.45;;;;;;;19.67;34.35;99332.86;481241;1174;115942;-58
2021/04/22 07:36:59;;;;;;;5.57;1.80;;;;;;;18.21;29.66;99332.66;483269;1173;115938;-58
2021/04/22 07:47:04;;;;;;;6.83;3.33;;;;;;;20.48;30.78;99333.07;483790;1174;115820;-60
2021/04/22 07:57:27;;;;;;;6.65;2.35;;;;;;;25.03;24.44;99342.66;472831;1174;116043;-64
2021/04/22 08:07:31;;;;;;;6.50;2.80;;;;;;;16.90;27.95;99360.26;469338;1174;117811;-57
2021/04/22 08:17:35;;;;;;;6.48;2.53;;;;;;;21.91;27.05;99357.19;477168;1174;115176;-68
2021/04/22 08:27:39;;;;;;;6.43;2.53;;;;;;;15.27;28.99;99354.55;467375;1174;10001766;-65
2021/04/22 08:37:43;;;;;;;5.63;2.43;;;;;;;13.92;30.91;99355.28;467664;1174;117127;-66
2021/04/22 08:47:47;;;;;;;9.23;2.20;;;;;;;13.23;32.97;99373.05;468482;1174;115838;-67
2021/04/22 08:57:52;;;;;;;8.75;2.90;;;;;;;12.31;32.66;99375.56;468738;1176;115688;-68
2021/04/22 09:07:56;;;;;;;15.40;5.10;;;;;;;12.58;34.06;99390.23;468758;1174;115714;-68
2021/04/22 09:18:03;;;;;;;8.63;3.77;;;;;;;12.92;33.79;99385.97;468330;1173;116190;-69
2021/04/22 09:28:08;;;;;;;10.70;2.50;;;;;;;12.16;34.46;99390.70;467777;1173;115934;-60
2021/04/22 09:38:15;;;;;;;8.33;2.47;;;;;;;11.84;34.58;99396.49;467983;1174;116161;-61
2021/04/22 09:48:28;;;;;;;8.73;2.67;;;;;;;11.45;35.20;99378.20;467780;1174;116151;-62
2021/04/22 09:58:33;;;;;;;12.43;3.83;;;;;;;11.11;34.79;99385.84;468151;1174;115809;-62
2021/04/22 10:08:44;;;;;;;9.05;3.65;;;;;;;11.38;35.24;99392.75;467953;1174;115974;-60
2021/04/22 10:18:48;;;;;;;15.35;4.15;;;;;;;11.27;35.31;99395.30;468424;1174;116862;-64
2021/04/22 10:28:52;;;;;;;8.87;3.33;;;;;;;11.18;35.22;99386.25;467612;1173;116375;-60
2021/04/22 10:38:56;;;;;;;7.07;3.97;;;;;;;10.85;34.87;99377.13;460779;1176;10001797;-60
2021/04/22 10:49:00;;;;;;;9.97;3.70;;;;;;;10.87;35.18;99383.97;466527;1174;116027;-60
2021/04/22 10:59:04;;;;;;;7.33;2.23;;;;;;;10.59;34.92;99385.00;479647;1176;116491;-61
2021/04/22 11:09:15;;;;;;;19.83;4.13;;;;;;;10.69;35.89;99401.00;483851;1174;116987;-59
2021/04/22 11:19:21;;;;;;;6.03;2.47;;;;;;;10.66;35.97;99391.53;483153;1174;115695;-58
2021/04/22 11:29:25;;;;;;;7.43;2.53;;;;;;;10.85;36.33;99395.52;483913;1174;116285;-59
2021/04/22 11:39:34;;;;;;;5.15;2.50;;;;;;;10.64;36.31;99401.30;483822;1173;115487;-60
2021/04/22 11:49:38;;;;;;;19.27;3.10;;;;;;;10.44;37.04;99408.72;483254;1174;116779;-57
2021/04/22 11:59:42;;;;;;;4.05;2.00;;;;;;;10.97;37.02;99406.98;483852;1174;116177;-57
2021/04/22 12:09:49;;;;;;;15.77;3.00;;;;;;;11.63;36.45;99391.83;483776;1174;116661;-56
2021/04/22 12:19:55;;;;;;;8.83;2.57;;;;;;;11.16;35.32;99380.27;483150;1174;118710;-56
2021/04/22 12:30:00;;;;;;;11.03;3.07;;;;;;;11.00;35.59;99367.36;483863;1174;116087;-57
2021/04/22 12:40:05;;;;;;;24.90;4.23;;;;;;;10.75;35.96;99371.67;483298;1174;116243;-57
2021/04/22 12:50:12;;;;;;;10.70;4.50;;;;;;;10.91;36.19;99363.59;474801;1174;116928;-60
2021/04/22 13:00:25;;;;;;;22.83;3.57;;;;;;;11.11;36.11;99371.88;483830;1174;116013;-58
2021/04/22 13:10:31;;;;;;;11.93;2.70;;;;;;;11.10;35.34;99371.02;483130;1174;115970;-60
2021/04/22 13:20:40;;;;;;;9.45;2.95;;;;;;;11.14;35.25;99371.66;483633;1176;117101;-59
2021/04/22 13:30:47;;;;;;;14.70;2.50;;;;;;;11.33;35.21;99360.68;483739;1175;117263;-58
2021/04/22 13:40:51;;;;;;;8.10;2.20;;;;;;;11.31;34.31;99347.66;483122;1173;116407;-58
2021/04/22 13:50:55;;;;;;;3.40;1.90;;;;;;;11.12;35.77;99370.92;483861;1174;116365;-57
2021/04/22 14:00:59;;;;;;;9.10;3.10;;;;;;;11.58;35.56;99364.17;481446;1174;116059;-61
2021/04/22 14:11:15;;;;;;;8.87;2.73;;;;;;;11.22;35.20;99382.48;483697;1174;117615;-58
2021/04/22 14:21:19;;;;;;;15.40;3.93;;;;;;;11.10;35.14;99376.28;479324;1177;115838;-61
2021/04/22 14:31:23;;;;;;;8.93;3.07;;;;;;;11.11;35.60;99377.95;474225;1174;116100;-61
2021/04/22 14:41:26;;;;;;;7.43;2.23;;;;;;;10.85;35.99;99393.74;469195;1174;116448;-60
2021/04/22 14:51:30;;;;;;;6.90;2.27;;;;;;;10.86;35.71;99389.34;476998;1174;115654;-60
2021/04/22 15:01:34;;;;;;;13.35;4.05;;;;;;;10.70;35.50;99389.55;482983;1174;116680;-61
2021/04/22 15:11:38;;;;;;;7.40;2.70;;;;;;;10.13;36.62;99444.81;483835;1174;116285;-61
2021/04/22 15:22:02;;;;;;;5.20;2.60;;;;;;;8.31;44.80;99489.70;482997;1174;20002947;-61
2021/04/22 15:32:06;;;;;;;6.10;3.90;;;;;;;6.93;52.90;99515.27;468764;1174;117092;-60
2021/04/22 15:42:10;;;;;;;7.83;4.10;;;;;;;6.12;53.88;99533.00;468508;1171;115163;-63
2021/04/22 15:52:15;;;;;;;6.45;3.25;;;;;;;6.13;54.31;99508.61;468516;1173;115040;-60
2021/04/22 16:02:21;;;;;;;3.15;2.20;;;;;;;6.57;50.82;99504.78;468472;1172;115390;-61
2021/04/22 16:12:25;;;;;;;4.67;3.13;;;;;;;6.60;50.70;99535.11;468554;1174;115475;-59
2021/04/22 16:22:32;;;;;;;8.03;2.37;;;;;;;6.51;50.73;99525.97;467687;1174;115716;-60
2021/04/22 16:32:37;;;;;;;5.93;2.20;;;;;;;6.71;50.97;99540.65;468849;1173;115924;-60
2021/04/22 16:42:41;;;;;;;6.75;2.40;;;;;;;6.67;52.10;99565.21;468960;1173;115584;-59
2021/04/22 16:52:46;;;;;;;4.63;1.68;;;;;;;6.14;53.31;99549.41;468039;1174;116407;-60
2021/04/22 17:02:52;;;;;;;5.80;3.20;;;;;;;5.58;53.83;99562.29;469001;1171;115371;-60
2021/04/22 17:12:57;;;;;;;3.97;1.80;;;;;;;5.05;55.52;99566.28;453462;1174;10001781;-61
2021/04/22 17:23:01;;;;;;;4.70;2.80;;;;;;;5.10;55.94;99576.50;475665;1174;158073;-59
2021/04/22 17:33:08;;;;;;;5.23;2.03;;;;;;;4.90;56.91;99572.95;476862;1173;116086;-60
2021/04/22 17:43:12;;;;;;;4.80;2.13;;;;;;;4.79;56.39;99589.02;480679;1174;115987;-59
2021/04/22 17:53:16;;;;;;;7.15;2.55;;;;;;;4.50;56.93;99596.20;481919;1173;115988;-61
2021/04/22 18:03:20;;;;;;;34.70;6.80;;;;;;;4.14;57.51;99599.30;482667;1173;115600;-61
2021/04/22 18:13:24;;;;;;;22.43;3.43;;;;;;;3.82;58.08;99612.57;463994;1173;10001652;-52
2021/04/22 18:23:28;;;;;;;3.07;2.13;;;;;;;3.59;58.57;99621.19;468826;1173;115681;-51
2021/04/22 18:33:33;;;;;;;8.10;2.20;;;;;;;3.41;58.79;99622.67;468872;1173;116677;-50
2021/04/22 18:43:37;;;;;;;10.87;2.73;;;;;;;3.18;59.64;99630.31;468309;1173;115111;-54
2021/04/22 18:53:41;;;;;;;4.55;2.40;;;;;;;2.96;60.06;99629.31;468324;1173;116071;-59
2021/04/22 19:03:45;;;;;;;15.90;6.83;;;;;;;2.74;60.52;99636.03;468532;1173;116110;-60
2021/04/22 19:13:49;;;;;;;19.35;7.00;;;;;;;2.49;61.74;99641.11;469009;1174;115991;-59
2021/04/22 19:23:53;;;;;;;19.97;6.97;;;;;;;2.32;61.84;99649.38;469476;1174;115100;-56
2021/04/22 19:33:58;;;;;;;13.25;5.65;;;;;;;2.30;62.47;99664.13;468264;1173;115733;-52
2021/04/22 19:44:03;;;;;;;10.03;4.97;;;;;;;2.54;62.85;99677.27;469430;1173;115147;-52
2021/04/22 19:54:09;;;;;;;8.50;3.67;;;;;;;2.70;63.19;99672.47;469331;1174;116095;-55
2021/04/22 20:04:13;;;;;;;8.67;5.20;;;;;;;2.78;63.43;99668.74;468428;1173;116917;-55
2021/04/22 20:14:23;;;;;;;8.13;4.27;;;;;;;2.87;63.39;99677.97;468892;1173;115831;-53
2021/04/22 20:24:27;;;;;;;13.50;7.30;;;;;;;2.61;63.59;99681.38;469223;1173;115841;-53
2021/04/22 20:34:31;;;;;;;14.47;5.87;;;;;;;2.52;64.44;99680.75;468037;1173;115569;-56
2021/04/22 20:44:38;;;;;;;9.70;5.60;;;;;;;2.41;64.77;99679.35;465452;1171;10001232;-58
2021/04/22 20:54:43;;;;;;;9.40;5.50;;;;;;;2.51;64.83;99681.65;469455;1174;115805;-56
2021/04/22 21:04:47;;;;;;;11.10;5.40;;;;;;;2.53;64.86;99676.40;470367;1174;115665;-56
2021/04/22 21:14:52;;;;;;;10.45;5.75;;;;;;;2.65;65.31;99685.57;472461;1173;116078;-56
2021/04/22 21:24:55;;;;;;;6.65;3.75;;;;;;;2.63;65.16;99683.02;468745;1171;115528;-55
2021/04/22 21:35:00;;;;;;;9.80;4.80;;;;;;;2.65;65.16;99693.34;467989;1173;172081;-51
2021/04/22 21:45:05;;;;;;;8.75;4.85;;;;;;;2.82;64.82;99700.63;467861;1173;115782;-54
2021/04/22 21:55:11;;;;;;;14.20;7.80;;;;;;;2.84;64.77;99700.59;468585;1170;117382;-58
2021/04/22 22:05:15;;;;;;;9.17;5.70;;;;;;;2.61;65.07;99708.14;469254;1173;115696;-54
2021/04/22 22:15:20;;;;;;;11.27;6.00;;;;;;;2.36;65.10;99701.08;469468;1171;115282;-61
2021/04/22 22:25:24;;;;;;;15.10;5.90;;;;;;;2.05;65.50;99696.73;469376;1174;115827;-62
2021/04/22 22:35:31;;;;;;;10.80;6.30;;;;;;;1.81;66.37;99706.86;468487;1173;115254;-60
2021/04/22 22:45:36;;;;;;;11.70;6.38;;;;;;;1.58;66.96;99716.95;468763;1172;115259;-62
2021/04/22 22:55:39;;;;;;;11.03;5.20;;;;;;;1.46;67.06;99721.55;469319;1171;116012;-61
2021/04/22 23:05:45;;;;;;;11.07;6.43;;;;;;;1.50;67.64;99717.16;469026;1172;115690;-63
2021/04/22 23:15:49;;;;;;;8.30;4.77;;;;;;;1.46;68.25;99725.89;469018;1173;115891;-60
2021/04/22 23:25:53;;;;;;;11.95;6.55;;;;;;;1.58;68.60;99723.00;467798;1173;116139;-61
2021/04/22 23:35:57;;;;;;;12.30;6.15;;;;;;;1.75;68.19;99719.13;468454;1171;115616;-61
2021/04/22 23:46:02;;;;;;;11.40;6.35;;;;;;;1.68;68.38;99731.38;469249;1173;115551;-62
2021/04/22 23:56:07;;;;;;;13.03;6.73;;;;;;;1.59;68.48;99739.36;469060;1173;115404;-62
